createdAt,value
2018-12-17T00:00:02.791Z,2.67
2018-12-17T00:02:30.767Z,8.07
2018-12-17T00:04:58.681Z,6.40
2018-12-17T00:07:26.624Z,8.03
2018-12-17T00:09:54.549Z,5.17
2018-12-17T00:12:22.482Z,7.53
2018-12-17T00:14:50.429Z,11.13
2018-12-17T00:17:18.392Z,7.53
2018-12-17T00:19:46.617Z,8.10
2018-12-17T00:22:14.918Z,3.57
2018-12-17T00:24:42.825Z,7.23
2018-12-17T00:27:10.748Z,4.47
2018-12-17T00:29:39.952Z,8.13
2018-12-17T00:32:07.900Z,6.30
2018-12-17T00:34:35.838Z,5.30
2018-12-17T00:37:03.769Z,9.27
2018-12-17T00:39:31.701Z,5.27
2018-12-17T00:41:59.619Z,6.37
2018-12-17T00:44:27.588Z,7.60
2018-12-17T00:46:55.493Z,7.10
2018-12-17T00:49:23.419Z,7.43
2018-12-17T00:51:51.360Z,2.83
2018-12-17T00:54:19.337Z,3.93
2018-12-17T00:56:47.436Z,4.60
2018-12-17T00:59:15.374Z,2.83
2018-12-17T01:01:43.297Z,0.87
2018-12-17T01:04:11.244Z,2.17
2018-12-17T01:06:39.200Z,7.03
2018-12-17T01:09:07.167Z,4.57
2018-12-17T01:11:35.071Z,3.93
2018-12-17T01:14:02.997Z,3.50
2018-12-17T01:16:30.924Z,4.03
2018-12-17T01:18:58.847Z,4.97
2018-12-17T01:21:27.127Z,8.63
2018-12-17T01:23:55.093Z,7.97
2018-12-17T01:26:23.406Z,9.60
2018-12-17T01:28:51.476Z,7.70
2018-12-17T01:31:19.432Z,3.67
2018-12-17T01:33:47.339Z,6.53
2018-12-17T01:36:15.280Z,8.23
2018-12-17T01:38:43.203Z,7.23
2018-12-17T01:41:11.134Z,5.13
2018-12-17T01:43:39.090Z,9.03
2018-12-17T01:46:07.008Z,4.63
2018-12-17T01:48:34.935Z,5.70
2018-12-17T01:51:02.861Z,9.60
2018-12-17T01:53:30.792Z,8.03
2018-12-17T01:55:58.721Z,3.83
2018-12-17T01:58:29.267Z,5.87
2018-12-17T02:00:56.632Z,2.83
2018-12-17T02:03:24.582Z,8.80
2018-12-17T02:05:52.716Z,6.60
2018-12-17T02:08:20.711Z,4.17
2018-12-17T02:10:48.653Z,7.03
2018-12-17T02:13:16.660Z,7.10
2018-12-17T02:15:44.607Z,4.00
2018-12-17T02:18:12.516Z,5.97
2018-12-17T02:20:40.489Z,6.30
2018-12-17T02:23:08.397Z,6.97
2018-12-17T02:25:36.337Z,5.70
2018-12-17T02:28:04.306Z,9.30
2018-12-17T02:30:32.224Z,4.00
2018-12-17T02:33:00.160Z,4.80
2018-12-17T02:35:28.076Z,3.97
2018-12-17T02:37:56.036Z,5.87
2018-12-17T02:40:23.980Z,4.03
2018-12-17T02:42:51.974Z,8.83
2018-12-17T02:45:19.944Z,6.57
2018-12-17T02:47:47.860Z,2.83
2018-12-17T02:50:15.796Z,6.80
2018-12-17T02:52:43.725Z,7.93
2018-12-17T02:55:11.737Z,3.00
2018-12-17T02:57:39.644Z,4.73
2018-12-17T03:00:08.219Z,5.00
2018-12-17T03:02:36.203Z,6.57
2018-12-17T03:05:04.584Z,13.83
2018-12-17T03:07:32.515Z,4.10
2018-12-17T03:10:00.444Z,9.47
2018-12-17T03:12:28.375Z,6.70
2018-12-17T03:14:56.355Z,4.33
2018-12-17T03:17:24.339Z,6.77
2018-12-17T03:19:52.258Z,5.73
2018-12-17T03:22:20.181Z,5.63
2018-12-17T03:24:48.103Z,6.73
2018-12-17T03:27:16.040Z,6.07
2018-12-17T03:29:43.968Z,3.10
2018-12-17T03:32:11.911Z,8.30
2018-12-17T03:34:39.834Z,4.30
2018-12-17T03:37:07.772Z,7.50
2018-12-17T03:39:35.701Z,5.27
2018-12-17T03:42:03.652Z,3.13
2018-12-17T03:44:31.581Z,4.63
2018-12-17T03:46:59.550Z,3.10
2018-12-17T03:49:27.595Z,5.87
2018-12-17T03:51:55.544Z,3.70
2018-12-17T03:54:23.456Z,7.20
2018-12-17T03:56:51.396Z,2.43
2018-12-17T03:59:19.334Z,7.67
2018-12-17T04:01:47.262Z,5.17
2018-12-17T04:04:15.193Z,4.53
2018-12-17T04:06:43.133Z,5.40
2018-12-17T04:09:11.061Z,3.97
2018-12-17T04:11:39.006Z,3.37
2018-12-17T04:14:06.995Z,7.83
2018-12-17T04:16:34.942Z,5.93
2018-12-17T04:19:02.860Z,2.97
2018-12-17T04:21:30.971Z,2.57
2018-12-17T04:23:58.956Z,3.33
2018-12-17T04:26:26.893Z,7.60
2018-12-17T04:28:54.831Z,6.97
2018-12-17T04:31:22.882Z,4.00
2018-12-17T04:33:50.809Z,4.77
2018-12-17T04:36:18.843Z,6.60
2018-12-17T04:38:46.896Z,3.40
2018-12-17T04:41:14.834Z,8.93
2018-12-17T04:43:42.777Z,5.43
2018-12-17T04:46:10.708Z,5.80
2018-12-17T04:48:38.649Z,7.40
2018-12-17T04:51:07.454Z,4.93
2018-12-17T04:53:35.388Z,4.90
2018-12-17T04:56:03.355Z,6.60
2018-12-17T04:58:31.386Z,9.57
2018-12-17T05:00:59.317Z,7.37
2018-12-17T05:03:27.384Z,2.53
2018-12-17T05:05:55.468Z,2.57
2018-12-17T05:08:23.409Z,5.07
2018-12-17T05:10:51.378Z,11.27
2018-12-17T05:13:19.338Z,3.53
2018-12-17T05:15:47.289Z,9.27
2018-12-17T05:18:15.333Z,4.47
2018-12-17T05:20:43.299Z,8.63
2018-12-17T05:23:11.243Z,6.13
2018-12-17T05:25:39.233Z,9.00
2018-12-17T05:28:07.174Z,5.73
2018-12-17T05:30:35.111Z,6.90
2018-12-17T05:33:03.105Z,5.57
2018-12-17T05:35:31.020Z,4.90
2018-12-17T05:37:59.193Z,7.17
2018-12-17T05:40:27.120Z,3.77
2018-12-17T05:42:55.057Z,6.60
2018-12-17T05:45:22.994Z,7.80
2018-12-17T05:48:21.707Z,7.40
2018-12-17T05:50:49.649Z,5.63
2018-12-17T05:53:17.580Z,8.67
2018-12-17T05:55:45.512Z,5.33
2018-12-17T05:58:13.475Z,6.33
2018-12-17T06:00:41.541Z,8.30
2018-12-17T06:03:09.475Z,8.23
2018-12-17T06:05:37.491Z,8.47
2018-12-17T06:08:05.628Z,7.80
2018-12-17T06:10:33.595Z,11.10
2018-12-17T06:13:01.539Z,9.33
2018-12-17T06:15:29.464Z,4.43
2018-12-17T06:17:57.393Z,7.40
2018-12-17T06:20:25.316Z,7.33
2018-12-17T06:22:53.240Z,9.90
2018-12-17T06:25:21.168Z,8.80
2018-12-17T06:27:49.072Z,8.87
2018-12-17T06:30:17.011Z,6.23
2018-12-17T06:32:44.928Z,5.60
2018-12-17T06:35:12.863Z,4.10
2018-12-17T06:37:40.799Z,7.90
2018-12-17T06:40:10.372Z,8.07
2018-12-17T06:42:38.682Z,9.90
2018-12-17T06:45:06.652Z,6.73
2018-12-17T06:47:34.587Z,8.00
2018-12-17T06:50:02.585Z,7.87
2018-12-17T06:52:30.558Z,10.53
2018-12-17T06:54:58.543Z,7.00
2018-12-17T06:57:26.550Z,8.07
2018-12-17T06:59:54.524Z,6.73
2018-12-17T07:02:22.877Z,9.50
2018-12-17T07:04:51.195Z,8.13
2018-12-17T07:07:19.572Z,9.43
2018-12-17T07:09:47.778Z,10.53
2018-12-17T07:12:15.961Z,11.53
2018-12-17T07:14:44.087Z,11.03
2018-12-17T07:17:12.308Z,6.67
2018-12-17T07:19:40.896Z,6.33
2018-12-17T07:22:11.024Z,13.10
2018-12-17T07:24:39.879Z,7.87
2018-12-17T07:27:08.494Z,8.13
2018-12-17T07:29:37.050Z,12.20
2018-12-17T07:32:05.080Z,13.67
2018-12-17T07:34:33.304Z,11.67
2018-12-17T07:37:03.036Z,9.73
2018-12-17T07:39:32.113Z,9.50
2018-12-17T07:42:00.222Z,7.50
2018-12-17T07:44:28.241Z,10.90
2018-12-17T07:46:56.223Z,10.37
2018-12-17T07:49:24.337Z,11.53
2018-12-17T07:51:52.475Z,9.03
2018-12-17T07:54:22.194Z,12.40
2018-12-17T07:56:50.204Z,6.73
2018-12-17T07:59:18.391Z,10.23
2018-12-17T08:01:46.539Z,7.90
2018-12-17T08:04:14.744Z,8.97
2018-12-17T08:06:42.975Z,7.23
2018-12-17T08:09:10.979Z,9.10
2018-12-17T08:11:39.188Z,9.70
2018-12-17T08:14:07.448Z,7.60
2018-12-17T08:16:36.290Z,7.33
2018-12-17T08:19:04.346Z,4.57
2018-12-17T08:21:32.656Z,8.17
2018-12-17T08:24:00.791Z,10.13
2018-12-17T08:26:33.972Z,7.47
2018-12-17T08:29:08.405Z,10.17
2018-12-17T08:31:36.775Z,7.67
2018-12-17T08:34:04.961Z,6.27
2018-12-17T08:36:34.260Z,9.80
2018-12-17T08:39:03.851Z,10.57
2018-12-17T08:41:31.957Z,5.83
2018-12-17T08:44:01.040Z,7.10
2018-12-17T08:46:29.196Z,6.40
2018-12-17T08:48:57.328Z,8.90
2018-12-17T08:51:25.630Z,4.63
2018-12-17T08:53:54.024Z,3.93
2018-12-17T08:56:22.135Z,6.70
2018-12-17T08:58:50.397Z,9.33
2018-12-17T09:01:18.576Z,6.77
2018-12-17T09:03:47.459Z,8.03
2018-12-17T09:06:16.047Z,4.90
2018-12-17T09:08:45.622Z,7.83
2018-12-17T09:11:13.769Z,7.37
2018-12-17T09:13:41.934Z,5.83
2018-12-17T09:16:10.356Z,7.93
2018-12-17T09:18:38.350Z,5.20
2018-12-17T09:21:08.414Z,11.17
2018-12-17T09:23:37.505Z,6.23
2018-12-17T09:26:06.136Z,4.27
2018-12-17T09:28:34.421Z,11.57
2018-12-17T09:31:02.747Z,9.37
2018-12-17T09:33:31.085Z,9.30
2018-12-17T09:35:59.370Z,9.53
2018-12-17T09:38:27.387Z,7.20
2018-12-17T09:40:55.566Z,5.70
2018-12-17T09:43:23.596Z,11.03
2018-12-17T09:45:51.825Z,12.10
2018-12-17T09:48:19.853Z,9.93
2018-12-17T09:50:47.942Z,10.07
2018-12-17T09:53:16.062Z,5.23
2018-12-17T09:55:44.193Z,9.93
2018-12-17T09:58:12.544Z,5.80
2018-12-17T10:00:40.706Z,10.57
2018-12-17T10:03:08.727Z,7.33
2018-12-17T10:05:37.861Z,8.63
2018-12-17T10:08:06.222Z,12.27
2018-12-17T10:10:34.273Z,12.10
2018-12-17T10:13:03.260Z,11.43
2018-12-17T10:15:32.668Z,5.63
2018-12-17T10:18:00.794Z,11.83
2018-12-17T10:20:28.943Z,6.17
2018-12-17T10:22:57.103Z,5.60
2018-12-17T10:25:25.227Z,6.73
2018-12-17T10:27:53.425Z,9.03
2018-12-17T10:30:21.472Z,7.13
2018-12-17T10:32:49.616Z,6.37
2018-12-17T10:35:18.457Z,7.78
2018-12-17T10:37:47.416Z,8.73
2018-12-17T10:40:15.560Z,8.83
2018-12-17T10:42:43.766Z,11.90
2018-12-17T10:45:11.966Z,5.87
2018-12-17T10:47:40.166Z,11.27
2018-12-17T10:50:08.324Z,11.20
2018-12-17T10:52:38.365Z,8.90
2018-12-17T10:55:11.288Z,7.80
2018-12-17T10:57:40.569Z,8.10
2018-12-17T11:00:13.241Z,6.17
2018-12-17T11:02:41.329Z,10.53
2018-12-17T11:05:15.817Z,6.10
2018-12-17T11:07:46.823Z,6.80
2018-12-17T11:10:14.985Z,11.47
2018-12-17T11:12:43.208Z,14.33
2018-12-17T11:15:11.472Z,9.77
2018-12-17T11:17:39.643Z,9.23
2018-12-17T11:20:10.994Z,13.00
2018-12-17T11:22:39.476Z,9.15
2018-12-17T11:25:08.095Z,9.30
2018-12-17T11:27:36.416Z,10.10
2018-12-17T11:30:05.739Z,7.40
2018-12-17T11:32:42.803Z,12.50
2018-12-17T11:35:11.124Z,10.27
2018-12-17T11:37:39.973Z,5.73
2018-12-17T11:40:08.217Z,7.37
2018-12-17T11:42:37.054Z,9.30
2018-12-17T11:45:05.932Z,5.33
2018-12-17T11:47:33.969Z,14.03
2018-12-17T11:50:01.976Z,9.68
2018-12-17T11:52:30.109Z,14.00
2018-12-17T11:54:58.322Z,7.83
2018-12-17T11:57:43.236Z,8.27
2018-12-17T12:00:11.379Z,10.60
2018-12-17T12:02:39.444Z,12.13
2018-12-17T12:05:07.566Z,10.53
2018-12-17T12:07:35.810Z,11.00
2018-12-17T12:10:04.726Z,9.73
2018-12-17T12:13:04.023Z,12.07
2018-12-17T12:15:32.287Z,9.30
2018-12-17T12:18:00.393Z,11.03
2018-12-17T12:20:28.650Z,8.40
2018-12-17T12:22:56.792Z,12.17
2018-12-17T12:25:25.080Z,10.40
2018-12-17T12:27:53.191Z,8.03
2018-12-17T12:30:22.079Z,21.73
2018-12-17T12:32:50.891Z,12.03
2018-12-17T12:35:19.924Z,8.77
2018-12-17T12:37:48.542Z,5.30
2018-12-17T12:40:17.124Z,9.87
2018-12-17T12:42:51.350Z,10.80
2018-12-17T12:45:16.351Z,12.70
2018-12-17T12:47:44.749Z,8.27
2018-12-17T12:50:14.344Z,13.13
2018-12-17T12:52:42.556Z,13.03
2018-12-17T12:55:10.713Z,18.57
2018-12-17T12:57:39.254Z,13.70
2018-12-17T13:00:12.728Z,14.87
2018-12-17T13:02:41.313Z,9.93
2018-12-17T13:05:09.409Z,7.60
2018-12-17T13:07:37.972Z,16.07
2018-12-17T13:10:08.777Z,5.60
2018-12-17T13:12:38.308Z,5.53
2018-12-17T13:15:08.329Z,11.20
2018-12-17T13:17:37.425Z,8.20
2018-12-17T13:20:08.301Z,11.00
2018-12-17T13:22:37.255Z,7.00
2018-12-17T13:25:12.298Z,11.90
2018-12-17T13:27:42.946Z,12.20
2018-12-17T13:30:11.418Z,7.50
2018-12-17T13:32:41.104Z,10.20
2018-12-17T13:35:09.425Z,14.40
2018-12-17T13:37:40.001Z,9.50
2018-12-17T13:40:09.806Z,7.40
2018-12-17T13:42:39.016Z,7.10
2018-12-17T13:45:07.697Z,10.93
2018-12-17T13:47:36.069Z,5.57
2018-12-17T13:50:09.794Z,7.83
2018-12-17T13:52:43.264Z,10.83
2018-12-17T13:55:11.564Z,12.23
2018-12-17T13:57:40.300Z,10.60
2018-12-17T14:00:12.479Z,6.00
2018-12-17T14:02:40.912Z,7.63
2018-12-17T14:05:09.551Z,9.70
2018-12-17T14:07:38.570Z,9.33
2018-12-17T14:10:14.946Z,15.63
2018-12-17T14:12:45.791Z,9.97
2018-12-17T14:15:13.912Z,12.17
2018-12-17T14:17:46.791Z,9.87
2018-12-17T14:20:20.536Z,6.87
2018-12-17T14:22:48.592Z,9.90
2018-12-17T14:25:16.888Z,11.40
2018-12-17T14:27:45.121Z,8.30
2018-12-17T14:30:13.352Z,9.77
2018-12-17T14:32:42.091Z,8.53
2018-12-17T14:35:11.136Z,14.43
2018-12-17T14:37:44.664Z,4.07
2018-12-17T14:40:13.136Z,8.47
2018-12-17T14:42:43.271Z,9.43
2018-12-17T14:45:12.527Z,12.90
2018-12-17T14:47:42.027Z,10.63
2018-12-17T14:50:11.460Z,5.73
2018-12-17T14:52:39.485Z,6.23
2018-12-17T14:55:07.468Z,8.90
2018-12-17T14:57:35.475Z,7.77
2018-12-17T15:00:03.815Z,8.17
2018-12-17T15:02:31.810Z,12.47
2018-12-17T15:04:59.884Z,8.53
2018-12-17T15:07:27.872Z,4.90
2018-12-17T15:09:55.853Z,8.03
2018-12-17T15:12:24.607Z,8.27
2018-12-17T15:14:52.690Z,11.93
2018-12-17T15:17:20.672Z,6.43
2018-12-17T15:19:48.786Z,11.80
2018-12-17T15:22:16.746Z,11.80
2018-12-17T15:24:44.712Z,8.70
2018-12-17T15:27:13.618Z,15.00
2018-12-17T15:29:41.886Z,9.33
2018-12-17T15:32:09.857Z,14.73
2018-12-17T15:34:37.907Z,11.63
2018-12-17T15:37:06.786Z,7.20
2018-12-17T15:39:35.492Z,9.83
2018-12-17T15:42:05.197Z,9.70
2018-12-17T15:44:35.583Z,8.77
2018-12-17T15:47:04.279Z,7.37
2018-12-17T15:49:32.405Z,11.77
2018-12-17T15:52:06.418Z,12.23
2018-12-17T15:54:35.502Z,14.67
2018-12-17T15:57:08.290Z,19.43
2018-12-17T15:59:36.502Z,13.47
2018-12-17T16:02:04.534Z,16.40
2018-12-17T16:04:32.704Z,15.10
2018-12-17T16:07:01.575Z,20.95
2018-12-17T16:09:29.613Z,23.70
2018-12-17T16:11:57.789Z,40.30
2018-12-17T16:14:27.989Z,25.47
2018-12-17T16:16:56.557Z,31.30
2018-12-17T16:19:25.534Z,29.77
2018-12-17T16:21:54.179Z,27.00
2018-12-17T16:24:22.389Z,23.67
2018-12-17T16:26:51.177Z,42.17
2018-12-17T16:29:20.199Z,37.20
2018-12-17T16:31:49.732Z,28.33
2018-12-17T16:34:21.326Z,25.03
2018-12-17T16:36:50.059Z,22.27
2018-12-17T16:39:18.131Z,26.87
2018-12-17T16:41:47.713Z,21.43
2018-12-17T16:44:16.631Z,36.67
2018-12-17T16:46:46.743Z,27.90
2018-12-17T16:49:16.469Z,27.23
2018-12-17T16:51:46.244Z,26.93
2018-12-17T16:54:15.621Z,26.90
2018-12-17T16:56:45.841Z,31.10
2018-12-17T16:59:14.860Z,42.47
2018-12-17T17:01:43.705Z,39.73
2018-12-17T17:04:12.387Z,37.10
2018-12-17T17:06:41.664Z,27.60
2018-12-17T17:09:10.891Z,22.13
2018-12-17T17:11:39.670Z,30.53
2018-12-17T17:14:07.911Z,21.70
2018-12-17T17:16:36.664Z,24.90
2018-12-17T17:19:04.695Z,28.77
2018-12-17T17:21:32.669Z,24.93
2018-12-17T17:24:00.713Z,27.00
2018-12-17T17:26:28.645Z,54.70
2018-12-17T17:28:56.593Z,28.13
2018-12-17T17:31:24.552Z,32.43
2018-12-17T17:33:52.536Z,31.07
2018-12-17T17:36:20.549Z,28.70
2018-12-17T17:38:48.563Z,39.20
2018-12-17T17:41:16.514Z,35.70
2018-12-17T17:43:44.514Z,130.33
2018-12-17T17:46:13.193Z,73.30
2018-12-17T17:48:42.260Z,62.10
2018-12-17T17:51:10.455Z,41.43
2018-12-17T17:53:38.468Z,60.30
2018-12-17T17:56:06.540Z,50.45
2018-12-17T17:58:34.880Z,43.73
2018-12-17T18:01:03.111Z,36.40
2018-12-17T18:03:31.160Z,32.47
2018-12-17T18:06:00.449Z,31.47
2018-12-17T18:08:28.556Z,41.85
2018-12-17T18:10:56.523Z,31.13
2018-12-17T18:13:24.489Z,31.80
2018-12-17T18:15:52.449Z,31.68
2018-12-17T18:18:20.582Z,34.93
2018-12-17T18:20:49.252Z,43.37
2018-12-17T18:23:17.217Z,32.70
2018-12-17T18:25:45.187Z,31.60
2018-12-17T18:28:13.464Z,38.87
2018-12-17T18:30:41.990Z,44.43
2018-12-17T18:33:10.019Z,41.50
2018-12-17T18:35:37.956Z,43.75
2018-12-17T18:38:05.943Z,38.40
2018-12-17T18:40:33.960Z,53.97
2018-12-17T18:43:01.924Z,36.35
2018-12-17T18:45:29.917Z,44.00
2018-12-17T18:47:57.917Z,148.00
2018-12-17T18:50:25.864Z,45.43
2018-12-17T18:52:53.834Z,69.07
2018-12-17T18:55:21.920Z,105.10
2018-12-17T18:57:49.871Z,57.57
2018-12-17T19:00:18.175Z,69.97
2018-12-17T19:02:46.268Z,82.70
2018-12-17T19:05:14.216Z,56.27
2018-12-17T19:07:42.647Z,43.67
2018-12-17T19:10:10.776Z,61.30
2018-12-17T19:12:38.718Z,40.03
2018-12-17T19:15:06.666Z,31.20
2018-12-17T19:17:34.638Z,28.27
2018-12-17T19:20:02.664Z,36.60
2018-12-17T19:22:30.641Z,33.37
2018-12-17T19:24:58.598Z,31.87
2018-12-17T19:27:26.645Z,39.80
2018-12-17T19:29:54.596Z,39.37
2018-12-17T19:32:22.539Z,32.23
2018-12-17T19:34:50.570Z,37.23
2018-12-17T19:37:18.551Z,54.10
2018-12-17T19:39:46.483Z,29.17
2018-12-17T19:42:14.415Z,23.57
2018-12-17T19:44:42.491Z,49.40
2018-12-17T19:47:10.474Z,33.63
2018-12-17T19:49:38.464Z,27.33
2018-12-17T19:52:06.427Z,24.17
2018-12-17T19:54:34.442Z,26.27
2018-12-17T19:57:02.451Z,28.00
2018-12-17T19:59:30.396Z,25.00
2018-12-17T20:01:58.351Z,27.43
2018-12-17T20:04:26.372Z,32.40
2018-12-17T20:06:54.315Z,38.57
2018-12-17T20:09:22.264Z,30.00
2018-12-17T20:11:50.217Z,25.97
2018-12-17T20:14:18.167Z,32.97
2018-12-17T20:16:46.187Z,27.30
2018-12-17T20:19:14.232Z,29.13
2018-12-17T20:21:42.316Z,33.33
2018-12-17T20:24:10.269Z,27.50
2018-12-17T20:26:38.206Z,22.33
2018-12-17T20:29:06.167Z,24.37
2018-12-17T20:31:34.120Z,21.00
2018-12-17T20:34:02.067Z,24.57
2018-12-17T20:36:30.118Z,20.73
2018-12-17T20:38:58.092Z,22.90
2018-12-17T20:41:26.210Z,15.80
2018-12-17T20:43:54.174Z,19.97
2018-12-17T20:46:22.208Z,13.20
2018-12-17T20:48:50.205Z,17.93
2018-12-17T20:51:18.144Z,14.47
2018-12-17T20:53:46.103Z,11.37
2018-12-17T20:56:14.091Z,17.87
2018-12-17T20:58:42.167Z,14.57
2018-12-17T21:01:10.127Z,15.80
2018-12-17T21:03:38.121Z,15.63
2018-12-17T21:06:06.158Z,13.07
2018-12-17T21:08:34.135Z,22.37
2018-12-17T21:11:02.140Z,15.40
2018-12-17T21:13:30.103Z,24.27
2018-12-17T21:15:58.079Z,35.93
2018-12-17T21:18:26.055Z,20.60
2018-12-17T21:20:54.060Z,25.60
2018-12-17T21:23:22.397Z,14.33
2018-12-17T21:25:50.374Z,18.67
2018-12-17T21:28:18.328Z,11.47
2018-12-17T21:30:46.308Z,15.27
2018-12-17T21:33:14.287Z,16.27
2018-12-17T21:35:43.144Z,17.60
2018-12-17T21:38:11.792Z,19.00
2018-12-17T21:40:39.773Z,16.43
2018-12-17T21:43:07.938Z,29.63
2018-12-17T21:45:36.117Z,16.67
2018-12-17T21:48:04.140Z,22.27
2018-12-17T21:50:32.181Z,23.83
2018-12-17T21:53:00.174Z,26.87
2018-12-17T21:55:28.136Z,23.47
2018-12-17T21:57:56.096Z,20.23
2018-12-17T22:00:24.027Z,20.47
2018-12-17T22:02:51.962Z,20.57
2018-12-17T22:05:19.909Z,20.97
2018-12-17T22:07:47.866Z,14.67
2018-12-17T22:10:20.284Z,12.87
2018-12-17T22:12:48.224Z,14.13
2018-12-17T22:15:16.195Z,10.27
2018-12-17T22:17:44.879Z,16.80
2018-12-17T22:20:13.028Z,12.47
2018-12-17T22:22:41.539Z,14.00
2018-12-17T22:25:09.533Z,16.93
2018-12-17T22:27:37.459Z,15.87
2018-12-17T22:30:05.712Z,22.73
2018-12-17T22:32:33.696Z,15.97
2018-12-17T22:35:01.741Z,20.57
2018-12-17T22:37:29.752Z,22.77
2018-12-17T22:39:57.720Z,23.13
2018-12-17T22:42:25.657Z,22.13
2018-12-17T22:44:53.601Z,19.83
2018-12-17T22:47:21.531Z,20.23
2018-12-17T22:49:49.465Z,13.93
2018-12-17T22:52:17.424Z,16.30
2018-12-17T22:54:45.601Z,12.77
2018-12-17T22:57:13.569Z,12.17
2018-12-17T22:59:41.750Z,10.83
2018-12-17T23:02:09.732Z,14.33
2018-12-17T23:04:37.716Z,15.80
2018-12-17T23:07:05.664Z,11.87
2018-12-17T23:09:44.683Z,10.50
2018-12-17T23:12:25.063Z,10.43
2018-12-17T23:15:04.074Z,17.20
2018-12-17T23:17:39.278Z,14.17
2018-12-17T23:20:08.030Z,18.33
2018-12-17T23:22:36.336Z,13.17
2018-12-17T23:25:04.329Z,10.03
2018-12-17T23:27:32.291Z,11.83
2018-12-17T23:30:00.407Z,13.53
2018-12-17T23:32:34.485Z,15.93
2018-12-17T23:35:02.536Z,15.17
2018-12-17T23:37:30.552Z,12.83
2018-12-17T23:39:58.529Z,13.50
2018-12-17T23:42:28.019Z,11.20
2018-12-17T23:44:56.649Z,10.80
2018-12-17T23:47:24.596Z,14.40
2018-12-17T23:49:52.536Z,9.70
2018-12-17T23:52:20.516Z,9.40
2018-12-17T23:54:48.489Z,10.80
2018-12-17T23:57:16.462Z,9.13
2018-12-17T23:59:44.423Z,12.83
